sensor_id;sensor_type;location;lat;lon;timestamp;P1;durP1;ratioP1;P2;durP2;ratioP2
70663;SDS011;58237;57.996;56.290;2022-11-15T00:01:19;2.55;;;1.02;;
70663;SDS011;58237;57.996;56.290;2022-11-15T00:03:45;3.63;;;1.20;;
70663;SDS011;58237;57.996;56.290;2022-11-15T00:06:11;2.47;;;0.98;;
70663;SDS011;58237;57.996;56.290;2022-11-15T00:08:36;4.82;;;1.52;;
70663;SDS011;58237;57.996;56.290;2022-11-15T00:11:02;2.53;;;0.90;;
70663;SDS011;58237;57.996;56.290;2022-11-15T00:13:28;2.83;;;1.13;;
70663;SDS011;58237;57.996;56.290;2022-11-15T00:15:56;3.53;;;1.27;;
70663;SDS011;58237;57.996;56.290;2022-11-15T00:18:22;2.63;;;0.88;;
70663;SDS011;58237;57.996;56.290;2022-11-15T00:20:47;3.03;;;1.33;;
70663;SDS011;58237;57.996;56.290;2022-11-15T00:23:12;4.28;;;2.22;;
70663;SDS011;58237;57.996;56.290;2022-11-15T00:25:38;1.23;;;0.60;;
70663;SDS011;58237;57.996;56.290;2022-11-15T00:28:03;2.45;;;1.10;;
70663;SDS011;58237;57.996;56.290;2022-11-15T00:30:28;1.85;;;0.68;;
70663;SDS011;58237;57.996;56.290;2022-11-15T00:32:54;2.40;;;1.00;;
70663;SDS011;58237;57.996;56.290;2022-11-15T00:35:19;2.80;;;1.10;;
70663;SDS011;58237;57.996;56.290;2022-11-15T00:37:45;1.65;;;0.90;;
70663;SDS011;58237;57.996;56.290;2022-11-15T00:40:10;3.33;;;1.08;;
70663;SDS011;58237;57.996;56.290;2022-11-15T00:42:36;2.03;;;1.08;;
70663;SDS011;58237;57.996;56.290;2022-11-15T00:45:01;2.53;;;0.98;;
70663;SDS011;58237;57.996;56.290;2022-11-15T00:47:30;3.00;;;1.25;;
70663;SDS011;58237;57.996;56.290;2022-11-15T00:49:55;7.90;;;1.23;;
70663;SDS011;58237;57.996;56.290;2022-11-15T00:52:21;4.38;;;1.50;;
70663;SDS011;58237;57.996;56.290;2022-11-15T00:54:46;3.63;;;1.27;;
70663;SDS011;58237;57.996;56.290;2022-11-15T00:57:11;4.20;;;1.25;;
70663;SDS011;58237;57.996;56.290;2022-11-15T00:59:37;2.88;;;1.10;;
70663;SDS011;58237;57.996;56.290;2022-11-15T01:02:02;3.33;;;1.20;;
70663;SDS011;58237;57.996;56.290;2022-11-15T01:04:27;3.40;;;1.30;;
70663;SDS011;58237;57.996;56.290;2022-11-15T01:06:53;3.50;;;1.20;;
70663;SDS011;58237;57.996;56.290;2022-11-15T01:09:18;3.13;;;1.30;;
70663;SDS011;58237;57.996;56.290;2022-11-15T01:11:44;4.00;;;1.50;;
70663;SDS011;58237;57.996;56.290;2022-11-15T01:14:09;4.43;;;1.33;;
70663;SDS011;58237;57.996;56.290;2022-11-15T01:16:34;2.97;;;1.10;;
70663;SDS011;58237;57.996;56.290;2022-11-15T01:19:00;2.95;;;0.85;;
70663;SDS011;58237;57.996;56.290;2022-11-15T01:21:25;4.75;;;1.48;;
70663;SDS011;58237;57.996;56.290;2022-11-15T01:23:54;5.70;;;1.40;;
70663;SDS011;58237;57.996;56.290;2022-11-15T01:26:20;4.38;;;1.58;;
70663;SDS011;58237;57.996;56.290;2022-11-15T01:28:45;3.70;;;1.48;;
70663;SDS011;58237;57.996;56.290;2022-11-15T01:31:15;6.35;;;1.88;;
70663;SDS011;58237;57.996;56.290;2022-11-15T01:33:41;4.38;;;1.50;;
70663;SDS011;58237;57.996;56.290;2022-11-15T01:36:08;5.05;;;1.65;;
70663;SDS011;58237;57.996;56.290;2022-11-15T01:38:34;5.50;;;1.52;;
70663;SDS011;58237;57.996;56.290;2022-11-15T01:40:59;3.40;;;1.40;;
70663;SDS011;58237;57.996;56.290;2022-11-15T01:43:32;6.15;;;1.70;;
70663;SDS011;58237;57.996;56.290;2022-11-15T01:46:02;4.40;;;1.50;;
70663;SDS011;58237;57.996;56.290;2022-11-15T01:48:33;5.80;;;1.60;;
70663;SDS011;58237;57.996;56.290;2022-11-15T01:50:59;2.75;;;1.20;;
70663;SDS011;58237;57.996;56.290;2022-11-15T01:53:26;4.07;;;1.75;;
70663;SDS011;58237;57.996;56.290;2022-11-15T01:55:52;2.33;;;1.15;;
70663;SDS011;58237;57.996;56.290;2022-11-15T01:58:18;3.30;;;1.10;;
70663;SDS011;58237;57.996;56.290;2022-11-15T02:00:43;4.97;;;2.15;;
70663;SDS011;58237;57.996;56.290;2022-11-15T02:03:09;3.78;;;1.27;;
70663;SDS011;58237;57.996;56.290;2022-11-15T02:05:35;2.08;;;1.00;;
70663;SDS011;58237;57.996;56.290;2022-11-15T02:08:01;3.83;;;1.55;;
70663;SDS011;58237;57.996;56.290;2022-11-15T02:10:26;4.15;;;1.48;;
70663;SDS011;58237;57.996;56.290;2022-11-15T02:12:52;3.70;;;1.58;;
70663;SDS011;58237;57.996;56.290;2022-11-15T02:15:18;6.35;;;1.77;;
70663;SDS011;58237;57.996;56.290;2022-11-15T02:25:46;6.95;;;1.95;;
70663;SDS011;58237;57.996;56.290;2022-11-15T02:30:50;7.32;;;2.40;;
70663;SDS011;58237;57.996;56.290;2022-11-15T02:33:26;5.65;;;1.77;;
70663;SDS011;58237;57.996;56.290;2022-11-15T02:36:00;4.03;;;1.48;;
70663;SDS011;58237;57.996;56.290;2022-11-15T02:41:04;5.90;;;1.27;;
70663;SDS011;58237;57.996;56.290;2022-11-15T02:43:36;4.35;;;1.40;;
70663;SDS011;58237;57.996;56.290;2022-11-15T02:46:06;4.13;;;1.33;;
70663;SDS011;58237;57.996;56.290;2022-11-15T02:48:32;4.40;;;1.60;;
70663;SDS011;58237;57.996;56.290;2022-11-15T02:50:59;5.65;;;2.05;;
70663;SDS011;58237;57.996;56.290;2022-11-15T02:53:27;6.00;;;2.13;;
70663;SDS011;58237;57.996;56.290;2022-11-15T02:55:53;6.30;;;2.00;;
70663;SDS011;58237;57.996;56.290;2022-11-15T03:00:58;7.80;;;1.73;;
70663;SDS011;58237;57.996;56.290;2022-11-15T03:08:39;5.95;;;2.17;;
70663;SDS011;58237;57.996;56.290;2022-11-15T03:11:12;5.28;;;1.95;;
70663;SDS011;58237;57.996;56.290;2022-11-15T03:13:50;6.40;;;1.70;;
70663;SDS011;58237;57.996;56.290;2022-11-15T03:16:20;2.72;;;1.10;;
70663;SDS011;58237;57.996;56.290;2022-11-15T03:18:53;4.07;;;1.40;;
70663;SDS011;58237;57.996;56.290;2022-11-15T03:21:19;6.05;;;1.80;;
70663;SDS011;58237;57.996;56.290;2022-11-15T03:23:46;3.28;;;1.20;;
70663;SDS011;58237;57.996;56.290;2022-11-15T03:26:12;2.75;;;1.20;;
70663;SDS011;58237;57.996;56.290;2022-11-15T03:33:48;6.07;;;1.92;;
70663;SDS011;58237;57.996;56.290;2022-11-15T03:36:14;2.25;;;1.00;;
70663;SDS011;58237;57.996;56.290;2022-11-15T03:38:40;4.05;;;1.67;;
70663;SDS011;58237;57.996;56.290;2022-11-15T03:41:08;6.65;;;1.73;;
70663;SDS011;58237;57.996;56.290;2022-11-15T03:43:42;4.82;;;1.77;;
70663;SDS011;58237;57.996;56.290;2022-11-15T03:46:16;4.75;;;1.42;;
70663;SDS011;58237;57.996;56.290;2022-11-15T03:48:47;4.00;;;1.67;;
70663;SDS011;58237;57.996;56.290;2022-11-15T03:51:14;4.82;;;1.38;;
70663;SDS011;58237;57.996;56.290;2022-11-15T03:53:40;3.85;;;1.58;;
70663;SDS011;58237;57.996;56.290;2022-11-15T03:56:06;4.22;;;1.60;;
70663;SDS011;58237;57.996;56.290;2022-11-15T03:58:31;3.75;;;1.40;;
70663;SDS011;58237;57.996;56.290;2022-11-15T04:00:56;3.25;;;1.17;;
70663;SDS011;58237;57.996;56.290;2022-11-15T04:03:22;5.05;;;1.60;;
70663;SDS011;58237;57.996;56.290;2022-11-15T04:05:47;4.22;;;1.67;;
70663;SDS011;58237;57.996;56.290;2022-11-15T04:08:12;3.55;;;1.48;;
70663;SDS011;58237;57.996;56.290;2022-11-15T04:10:38;3.85;;;1.45;;
70663;SDS011;58237;57.996;56.290;2022-11-15T04:13:03;2.83;;;0.90;;
70663;SDS011;58237;57.996;56.290;2022-11-15T04:15:28;5.38;;;1.60;;
70663;SDS011;58237;57.996;56.290;2022-11-15T04:17:55;2.63;;;1.10;;
70663;SDS011;58237;57.996;56.290;2022-11-15T04:22:46;4.45;;;1.63;;
70663;SDS011;58237;57.996;56.290;2022-11-15T04:25:11;2.70;;;1.13;;
70663;SDS011;58237;57.996;56.290;2022-11-15T04:27:38;5.68;;;1.65;;
70663;SDS011;58237;57.996;56.290;2022-11-15T04:30:03;3.55;;;1.40;;
70663;SDS011;58237;57.996;56.290;2022-11-15T04:32:30;2.75;;;1.20;;
70663;SDS011;58237;57.996;56.290;2022-11-15T04:34:56;5.78;;;1.85;;
70663;SDS011;58237;57.996;56.290;2022-11-15T04:37:21;5.63;;;1.85;;
70663;SDS011;58237;57.996;56.290;2022-11-15T04:39:46;4.75;;;1.65;;
70663;SDS011;58237;57.996;56.290;2022-11-15T04:42:12;4.47;;;1.67;;
70663;SDS011;58237;57.996;56.290;2022-11-15T04:44:37;5.78;;;2.33;;
70663;SDS011;58237;57.996;56.290;2022-11-15T04:47:03;4.63;;;1.80;;
70663;SDS011;58237;57.996;56.290;2022-11-15T04:49:28;3.38;;;1.45;;
70663;SDS011;58237;57.996;56.290;2022-11-15T04:51:53;4.13;;;1.85;;
70663;SDS011;58237;57.996;56.290;2022-11-15T04:54:19;4.97;;;1.52;;
70663;SDS011;58237;57.996;56.290;2022-11-15T04:56:44;3.00;;;1.23;;
70663;SDS011;58237;57.996;56.290;2022-11-15T04:59:09;6.88;;;2.28;;
70663;SDS011;58237;57.996;56.290;2022-11-15T05:01:35;5.35;;;2.15;;
70663;SDS011;58237;57.996;56.290;2022-11-15T05:04:00;4.28;;;1.83;;
70663;SDS011;58237;57.996;56.290;2022-11-15T05:06:25;2.72;;;1.27;;
70663;SDS011;58237;57.996;56.290;2022-11-15T05:08:51;6.57;;;2.05;;
70663;SDS011;58237;57.996;56.290;2022-11-15T05:11:16;4.47;;;2.03;;
70663;SDS011;58237;57.996;56.290;2022-11-15T05:13:42;4.13;;;1.45;;
70663;SDS011;58237;57.996;56.290;2022-11-15T05:16:07;2.45;;;1.15;;
70663;SDS011;58237;57.996;56.290;2022-11-15T05:18:32;4.78;;;1.48;;
70663;SDS011;58237;57.996;56.290;2022-11-15T05:21:04;4.65;;;1.60;;
70663;SDS011;58237;57.996;56.290;2022-11-15T05:23:30;4.78;;;1.77;;
70663;SDS011;58237;57.996;56.290;2022-11-15T05:25:58;4.97;;;1.80;;
70663;SDS011;58237;57.996;56.290;2022-11-15T05:28:24;9.07;;;1.63;;
70663;SDS011;58237;57.996;56.290;2022-11-15T05:30:49;5.63;;;1.88;;
70663;SDS011;58237;57.996;56.290;2022-11-15T05:33:15;6.22;;;1.45;;
70663;SDS011;58237;57.996;56.290;2022-11-15T05:35:41;4.00;;;1.55;;
70663;SDS011;58237;57.996;56.290;2022-11-15T05:38:08;6.65;;;2.65;;
70663;SDS011;58237;57.996;56.290;2022-11-15T05:40:33;5.07;;;1.50;;
70663;SDS011;58237;57.996;56.290;2022-11-15T05:42:59;4.90;;;1.77;;
70663;SDS011;58237;57.996;56.290;2022-11-15T05:45:27;6.03;;;1.90;;
70663;SDS011;58237;57.996;56.290;2022-11-15T05:47:53;5.85;;;2.20;;
70663;SDS011;58237;57.996;56.290;2022-11-15T05:50:21;3.30;;;1.27;;
70663;SDS011;58237;57.996;56.290;2022-11-15T05:52:46;5.45;;;1.70;;
70663;SDS011;58237;57.996;56.290;2022-11-15T05:55:12;6.68;;;1.60;;
70663;SDS011;58237;57.996;56.290;2022-11-15T05:57:38;9.15;;;2.50;;
70663;SDS011;58237;57.996;56.290;2022-11-15T06:00:04;4.93;;;1.77;;
70663;SDS011;58237;57.996;56.290;2022-11-15T06:02:30;4.78;;;1.58;;
70663;SDS011;58237;57.996;56.290;2022-11-15T06:04:56;5.13;;;1.70;;
70663;SDS011;58237;57.996;56.290;2022-11-15T06:07:21;7.95;;;2.30;;
70663;SDS011;58237;57.996;56.290;2022-11-15T06:09:47;6.75;;;1.80;;
70663;SDS011;58237;57.996;56.290;2022-11-15T06:12:12;6.10;;;1.75;;
70663;SDS011;58237;57.996;56.290;2022-11-15T06:14:38;4.28;;;1.55;;
70663;SDS011;58237;57.996;56.290;2022-11-15T06:17:03;3.88;;;1.50;;
70663;SDS011;58237;57.996;56.290;2022-11-15T06:19:28;4.82;;;1.83;;
70663;SDS011;58237;57.996;56.290;2022-11-15T06:21:54;4.15;;;1.75;;
70663;SDS011;58237;57.996;56.290;2022-11-15T06:24:19;5.63;;;2.22;;
70663;SDS011;58237;57.996;56.290;2022-11-15T06:26:44;4.38;;;1.73;;
70663;SDS011;58237;57.996;56.290;2022-11-15T06:29:10;4.75;;;1.70;;
70663;SDS011;58237;57.996;56.290;2022-11-15T06:31:35;3.15;;;1.50;;
70663;SDS011;58237;57.996;56.290;2022-11-15T06:34:01;4.75;;;1.52;;
70663;SDS011;58237;57.996;56.290;2022-11-15T06:36:26;3.75;;;1.63;;
70663;SDS011;58237;57.996;56.290;2022-11-15T06:38:51;6.10;;;2.10;;
70663;SDS011;58237;57.996;56.290;2022-11-15T06:41:17;6.32;;;2.50;;
70663;SDS011;58237;57.996;56.290;2022-11-15T06:43:42;10.30;;;2.35;;
70663;SDS011;58237;57.996;56.290;2022-11-15T06:46:07;6.18;;;2.05;;
70663;SDS011;58237;57.996;56.290;2022-11-15T06:48:33;5.68;;;2.25;;
70663;SDS011;58237;57.996;56.290;2022-11-15T06:50:59;10.20;;;2.92;;
70663;SDS011;58237;57.996;56.290;2022-11-15T06:53:25;6.95;;;2.42;;
70663;SDS011;58237;57.996;56.290;2022-11-15T06:55:51;6.57;;;2.35;;
70663;SDS011;58237;57.996;56.290;2022-11-15T06:58:17;5.88;;;2.13;;
70663;SDS011;58237;57.996;56.290;2022-11-15T07:00:42;5.30;;;2.22;;
70663;SDS011;58237;57.996;56.290;2022-11-15T07:03:08;5.53;;;2.22;;
70663;SDS011;58237;57.996;56.290;2022-11-15T07:05:33;3.78;;;1.42;;
70663;SDS011;58237;57.996;56.290;2022-11-15T07:07:59;4.25;;;1.33;;
70663;SDS011;58237;57.996;56.290;2022-11-15T07:10:25;6.40;;;2.33;;
70663;SDS011;58237;57.996;56.290;2022-11-15T07:12:51;5.80;;;2.28;;
70663;SDS011;58237;57.996;56.290;2022-11-15T07:15:17;4.95;;;1.95;;
70663;SDS011;58237;57.996;56.290;2022-11-15T07:17:42;3.67;;;1.50;;
70663;SDS011;58237;57.996;56.290;2022-11-15T07:20:07;4.63;;;1.70;;
70663;SDS011;58237;57.996;56.290;2022-11-15T07:22:33;4.63;;;1.63;;
70663;SDS011;58237;57.996;56.290;2022-11-15T07:24:58;4.57;;;1.40;;
70663;SDS011;58237;57.996;56.290;2022-11-15T07:27:23;4.47;;;1.35;;
70663;SDS011;58237;57.996;56.290;2022-11-15T07:29:49;3.00;;;1.15;;
70663;SDS011;58237;57.996;56.290;2022-11-15T07:32:14;2.60;;;1.23;;
70663;SDS011;58237;57.996;56.290;2022-11-15T07:34:40;5.55;;;1.73;;
70663;SDS011;58237;57.996;56.290;2022-11-15T07:37:05;11.05;;;2.08;;
70663;SDS011;58237;57.996;56.290;2022-11-15T07:39:30;1.92;;;0.93;;
70663;SDS011;58237;57.996;56.290;2022-11-15T07:41:56;3.17;;;1.48;;
70663;SDS011;58237;57.996;56.290;2022-11-15T07:44:21;3.28;;;1.30;;
70663;SDS011;58237;57.996;56.290;2022-11-15T07:46:46;3.72;;;1.70;;
70663;SDS011;58237;57.996;56.290;2022-11-15T07:49:12;5.32;;;1.90;;
70663;SDS011;58237;57.996;56.290;2022-11-15T07:51:37;4.15;;;1.73;;
70663;SDS011;58237;57.996;56.290;2022-11-15T07:54:02;4.13;;;1.63;;
70663;SDS011;58237;57.996;56.290;2022-11-15T07:56:28;4.90;;;1.60;;
70663;SDS011;58237;57.996;56.290;2022-11-15T07:58:53;6.55;;;1.88;;
70663;SDS011;58237;57.996;56.290;2022-11-15T08:01:18;3.63;;;1.55;;
70663;SDS011;58237;57.996;56.290;2022-11-15T08:03:44;4.00;;;1.40;;
70663;SDS011;58237;57.996;56.290;2022-11-15T08:06:09;3.25;;;1.10;;
70663;SDS011;58237;57.996;56.290;2022-11-15T08:08:35;4.38;;;1.88;;
70663;SDS011;58237;57.996;56.290;2022-11-15T08:11:00;4.63;;;1.58;;
70663;SDS011;58237;57.996;56.290;2022-11-15T08:13:25;4.25;;;1.73;;
70663;SDS011;58237;57.996;56.290;2022-11-15T08:15:51;4.78;;;1.40;;
70663;SDS011;58237;57.996;56.290;2022-11-15T08:18:16;2.35;;;0.93;;
70663;SDS011;58237;57.996;56.290;2022-11-15T08:20:42;2.55;;;0.95;;
70663;SDS011;58237;57.996;56.290;2022-11-15T08:23:07;5.25;;;2.05;;
70663;SDS011;58237;57.996;56.290;2022-11-15T08:25:33;3.60;;;1.17;;
70663;SDS011;58237;57.996;56.290;2022-11-15T08:28:00;4.03;;;1.20;;
70663;SDS011;58237;57.996;56.290;2022-11-15T08:30:26;3.63;;;1.33;;
70663;SDS011;58237;57.996;56.290;2022-11-15T08:32:52;4.70;;;1.30;;
70663;SDS011;58237;57.996;56.290;2022-11-15T08:35:18;2.03;;;1.02;;
70663;SDS011;58237;57.996;56.290;2022-11-15T08:37:43;3.90;;;1.50;;
70663;SDS011;58237;57.996;56.290;2022-11-15T08:40:09;2.80;;;1.00;;
70663;SDS011;58237;57.996;56.290;2022-11-15T08:42:34;3.03;;;1.50;;
70663;SDS011;58237;57.996;56.290;2022-11-15T08:45:00;4.57;;;1.65;;
70663;SDS011;58237;57.996;56.290;2022-11-15T08:47:25;4.15;;;1.20;;
70663;SDS011;58237;57.996;56.290;2022-11-15T08:49:50;4.70;;;1.00;;
70663;SDS011;58237;57.996;56.290;2022-11-15T08:52:16;2.22;;;0.85;;
70663;SDS011;58237;57.996;56.290;2022-11-15T08:54:41;3.63;;;1.20;;
70663;SDS011;58237;57.996;56.290;2022-11-15T08:57:07;3.05;;;1.15;;
70663;SDS011;58237;57.996;56.290;2022-11-15T08:59:32;2.28;;;0.73;;
70663;SDS011;58237;57.996;56.290;2022-11-15T09:01:57;3.20;;;1.20;;
70663;SDS011;58237;57.996;56.290;2022-11-15T09:04:23;4.10;;;1.40;;
70663;SDS011;58237;57.996;56.290;2022-11-15T09:06:48;4.22;;;1.70;;
70663;SDS011;58237;57.996;56.290;2022-11-15T09:09:13;2.72;;;1.30;;
70663;SDS011;58237;57.996;56.290;2022-11-15T09:11:39;4.45;;;1.92;;
70663;SDS011;58237;57.996;56.290;2022-11-15T09:14:04;4.75;;;1.85;;
70663;SDS011;58237;57.996;56.290;2022-11-15T09:16:30;4.22;;;2.00;;
70663;SDS011;58237;57.996;56.290;2022-11-15T09:18:55;3.22;;;1.65;;
70663;SDS011;58237;57.996;56.290;2022-11-15T09:21:21;4.90;;;1.95;;
70663;SDS011;58237;57.996;56.290;2022-11-15T09:23:46;3.05;;;1.20;;
70663;SDS011;58237;57.996;56.290;2022-11-15T09:26:12;3.47;;;1.25;;
70663;SDS011;58237;57.996;56.290;2022-11-15T09:28:37;2.45;;;1.13;;
70663;SDS011;58237;57.996;56.290;2022-11-15T09:31:04;3.22;;;1.60;;
70663;SDS011;58237;57.996;56.290;2022-11-15T09:33:30;4.40;;;1.65;;
70663;SDS011;58237;57.996;56.290;2022-11-15T09:36:05;3.05;;;1.35;;
70663;SDS011;58237;57.996;56.290;2022-11-15T09:38:30;2.72;;;1.13;;
70663;SDS011;58237;57.996;56.290;2022-11-15T09:41:08;4.95;;;1.65;;
70663;SDS011;58237;57.996;56.290;2022-11-15T09:48:42;1.80;;;0.60;;
70663;SDS011;58237;57.996;56.290;2022-11-15T09:51:12;2.10;;;0.77;;
70663;SDS011;58237;57.996;56.290;2022-11-15T09:53:41;2.70;;;1.17;;
70663;SDS011;58237;57.996;56.290;2022-11-15T09:56:41;1.75;;;0.75;;
70663;SDS011;58237;57.996;56.290;2022-11-15T10:01:59;3.03;;;1.30;;
70663;SDS011;58237;57.996;56.290;2022-11-15T10:04:17;3.53;;;1.08;;
70663;SDS011;58237;57.996;56.290;2022-11-15T10:06:45;2.17;;;1.00;;
70663;SDS011;58237;57.996;56.290;2022-11-15T10:09:45;3.00;;;1.10;;
70663;SDS011;58237;57.996;56.290;2022-11-15T10:12:03;6.43;;;1.23;;
70663;SDS011;58237;57.996;56.290;2022-11-15T10:14:29;1.30;;;0.65;;
70663;SDS011;58237;57.996;56.290;2022-11-15T10:17:17;2.45;;;1.13;;
70663;SDS011;58237;57.996;56.290;2022-11-15T10:22:28;1.85;;;1.20;;
70663;SDS011;58237;57.996;56.290;2022-11-15T10:27:35;2.33;;;1.08;;
70663;SDS011;58237;57.996;56.290;2022-11-15T10:30:01;1.63;;;0.80;;
70663;SDS011;58237;57.996;56.290;2022-11-15T10:32:28;1.52;;;0.80;;
70663;SDS011;58237;57.996;56.290;2022-11-15T10:34:54;1.45;;;0.80;;
70663;SDS011;58237;57.996;56.290;2022-11-15T10:37:30;1.73;;;0.70;;
70663;SDS011;58237;57.996;56.290;2022-11-15T10:40:38;2.42;;;1.02;;
70663;SDS011;58237;57.996;56.290;2022-11-15T10:42:44;2.00;;;0.82;;
70663;SDS011;58237;57.996;56.290;2022-11-15T10:45:31;2.90;;;0.80;;
70663;SDS011;58237;57.996;56.290;2022-11-15T10:48:18;1.48;;;0.70;;
70663;SDS011;58237;57.996;56.290;2022-11-15T10:50:41;1.63;;;0.80;;
70663;SDS011;58237;57.996;56.290;2022-11-15T10:55:54;1.05;;;0.60;;
70663;SDS011;58237;57.996;56.290;2022-11-15T11:00:45;3.55;;;1.00;;
70663;SDS011;58237;57.996;56.290;2022-11-15T11:03:25;2.72;;;0.90;;
70663;SDS011;58237;57.996;56.290;2022-11-15T11:06:03;2.50;;;1.08;;
70663;SDS011;58237;57.996;56.290;2022-11-15T11:08:28;2.40;;;1.10;;
70663;SDS011;58237;57.996;56.290;2022-11-15T11:10:58;2.67;;;1.15;;
70663;SDS011;58237;57.996;56.290;2022-11-15T11:13:33;4.18;;;1.20;;
70663;SDS011;58237;57.996;56.290;2022-11-15T11:16:14;2.53;;;1.05;;
70663;SDS011;58237;57.996;56.290;2022-11-15T11:21:21;3.05;;;1.00;;
70663;SDS011;58237;57.996;56.290;2022-11-15T11:23:59;1.45;;;0.80;;
70663;SDS011;58237;57.996;56.290;2022-11-15T11:29:10;2.90;;;1.05;;
70663;SDS011;58237;57.996;56.290;2022-11-15T11:36:57;1.75;;;0.95;;
70663;SDS011;58237;57.996;56.290;2022-11-15T11:44:33;4.57;;;1.00;;
70663;SDS011;58237;57.996;56.290;2022-11-15T11:54:31;5.25;;;0.80;;
70663;SDS011;58237;57.996;56.290;2022-11-15T11:56:57;2.15;;;1.10;;
70663;SDS011;58237;57.996;56.290;2022-11-15T12:01:54;1.35;;;0.70;;
70663;SDS011;58237;57.996;56.290;2022-11-15T12:04:39;1.90;;;0.80;;
70663;SDS011;58237;57.996;56.290;2022-11-15T12:07:11;2.33;;;0.77;;
70663;SDS011;58237;57.996;56.290;2022-11-15T12:15:03;2.35;;;1.10;;
70663;SDS011;58237;57.996;56.290;2022-11-15T12:17:30;1.73;;;0.80;;
70663;SDS011;58237;57.996;56.290;2022-11-15T12:19:56;1.95;;;1.00;;
70663;SDS011;58237;57.996;56.290;2022-11-15T12:22:36;1.15;;;0.68;;
70663;SDS011;58237;57.996;56.290;2022-11-15T12:30:01;2.53;;;0.80;;
70663;SDS011;58237;57.996;56.290;2022-11-15T12:32:33;2.00;;;0.88;;
70663;SDS011;58237;57.996;56.290;2022-11-15T12:35:00;2.88;;;1.00;;
70663;SDS011;58237;57.996;56.290;2022-11-15T12:40:17;1.35;;;0.65;;
70663;SDS011;58237;57.996;56.290;2022-11-15T12:42:56;2.38;;;0.90;;
70663;SDS011;58237;57.996;56.290;2022-11-15T12:47:49;2.03;;;0.63;;
70663;SDS011;58237;57.996;56.290;2022-11-15T12:50:15;2.83;;;0.90;;
70663;SDS011;58237;57.996;56.290;2022-11-15T12:53:09;2.50;;;0.95;;
70663;SDS011;58237;57.996;56.290;2022-11-15T12:55:30;2.65;;;0.90;;
70663;SDS011;58237;57.996;56.290;2022-11-15T12:57:55;3.70;;;1.15;;
70663;SDS011;58237;57.996;56.290;2022-11-15T13:00:40;1.88;;;0.90;;
70663;SDS011;58237;57.996;56.290;2022-11-15T13:03:17;2.60;;;1.10;;
70663;SDS011;58237;57.996;56.290;2022-11-15T13:08:08;2.58;;;1.20;;
70663;SDS011;58237;57.996;56.290;2022-11-15T13:10:33;2.95;;;1.00;;
70663;SDS011;58237;57.996;56.290;2022-11-15T13:13:02;3.10;;;1.30;;
70663;SDS011;58237;57.996;56.290;2022-11-15T13:15:35;2.47;;;1.10;;
70663;SDS011;58237;57.996;56.290;2022-11-15T13:18:25;2.25;;;1.00;;
70663;SDS011;58237;57.996;56.290;2022-11-15T13:20:51;3.47;;;1.35;;
70663;SDS011;58237;57.996;56.290;2022-11-15T13:23:16;1.65;;;0.88;;
70663;SDS011;58237;57.996;56.290;2022-11-15T13:28:28;1.35;;;0.80;;
70663;SDS011;58237;57.996;56.290;2022-11-15T13:30:56;2.58;;;1.02;;
70663;SDS011;58237;57.996;56.290;2022-11-15T13:35:49;2.17;;;0.80;;
70663;SDS011;58237;57.996;56.290;2022-11-15T13:38:19;3.40;;;1.20;;
70663;SDS011;58237;57.996;56.290;2022-11-15T13:40:50;4.05;;;1.30;;
70663;SDS011;58237;57.996;56.290;2022-11-15T13:48:31;2.80;;;0.90;;
70663;SDS011;58237;57.996;56.290;2022-11-15T13:50:56;2.70;;;0.90;;
70663;SDS011;58237;57.996;56.290;2022-11-15T13:53:22;1.77;;;0.63;;
70663;SDS011;58237;57.996;56.290;2022-11-15T13:55:48;2.80;;;1.00;;
70663;SDS011;58237;57.996;56.290;2022-11-15T13:58:13;2.33;;;0.90;;
70663;SDS011;58237;57.996;56.290;2022-11-15T14:03:24;2.42;;;1.10;;
70663;SDS011;58237;57.996;56.290;2022-11-15T14:08:58;3.13;;;1.20;;
70663;SDS011;58237;57.996;56.290;2022-11-15T14:11:24;1.90;;;0.80;;
70663;SDS011;58237;57.996;56.290;2022-11-15T14:16:51;2.50;;;1.00;;
70663;SDS011;58237;57.996;56.290;2022-11-15T14:24:30;2.70;;;1.17;;
70663;SDS011;58237;57.996;56.290;2022-11-15T14:26:55;2.42;;;1.10;;
70663;SDS011;58237;57.996;56.290;2022-11-15T14:29:21;2.47;;;1.23;;
70663;SDS011;58237;57.996;56.290;2022-11-15T14:31:47;2.70;;;1.20;;
70663;SDS011;58237;57.996;56.290;2022-11-15T14:34:12;3.40;;;1.30;;
70663;SDS011;58237;57.996;56.290;2022-11-15T14:36:38;2.03;;;0.85;;
70663;SDS011;58237;57.996;56.290;2022-11-15T14:39:03;2.33;;;0.95;;
70663;SDS011;58237;57.996;56.290;2022-11-15T14:41:28;2.63;;;1.20;;
70663;SDS011;58237;57.996;56.290;2022-11-15T14:43:54;2.38;;;1.00;;
70663;SDS011;58237;57.996;56.290;2022-11-15T14:46:19;3.60;;;1.13;;
70663;SDS011;58237;57.996;56.290;2022-11-15T14:48:44;1.77;;;0.70;;
70663;SDS011;58237;57.996;56.290;2022-11-15T14:51:14;2.42;;;0.95;;
70663;SDS011;58237;57.996;56.290;2022-11-15T14:53:40;3.42;;;1.08;;
70663;SDS011;58237;57.996;56.290;2022-11-15T14:56:05;2.30;;;0.93;;
70663;SDS011;58237;57.996;56.290;2022-11-15T14:58:31;2.25;;;1.05;;
70663;SDS011;58237;57.996;56.290;2022-11-15T15:00:56;3.70;;;1.27;;
70663;SDS011;58237;57.996;56.290;2022-11-15T15:03:21;5.13;;;1.42;;
70663;SDS011;58237;57.996;56.290;2022-11-15T15:05:47;3.20;;;1.40;;
70663;SDS011;58237;57.996;56.290;2022-11-15T15:08:12;5.30;;;1.40;;
70663;SDS011;58237;57.996;56.290;2022-11-15T15:10:38;3.50;;;1.25;;
70663;SDS011;58237;57.996;56.290;2022-11-15T15:13:04;4.63;;;1.20;;
70663;SDS011;58237;57.996;56.290;2022-11-15T15:15:34;3.67;;;1.33;;
70663;SDS011;58237;57.996;56.290;2022-11-15T15:18:00;2.97;;;1.02;;
70663;SDS011;58237;57.996;56.290;2022-11-15T15:20:25;4.15;;;1.35;;
70663;SDS011;58237;57.996;56.290;2022-11-15T15:22:51;5.53;;;1.30;;
70663;SDS011;58237;57.996;56.290;2022-11-15T15:25:19;2.70;;;1.08;;
70663;SDS011;58237;57.996;56.290;2022-11-15T15:27:45;1.15;;;0.90;;
70663;SDS011;58237;57.996;56.290;2022-11-15T15:30:11;4.13;;;0.90;;
70663;SDS011;58237;57.996;56.290;2022-11-15T15:32:36;1.88;;;0.93;;
70663;SDS011;58237;57.996;56.290;2022-11-15T15:35:01;3.95;;;1.30;;
70663;SDS011;58237;57.996;56.290;2022-11-15T15:37:28;6.50;;;1.08;;
70663;SDS011;58237;57.996;56.290;2022-11-15T15:39:55;3.40;;;1.30;;
70663;SDS011;58237;57.996;56.290;2022-11-15T15:42:21;2.47;;;0.90;;
70663;SDS011;58237;57.996;56.290;2022-11-15T15:44:47;6.22;;;1.63;;
70663;SDS011;58237;57.996;56.290;2022-11-15T15:47:13;3.58;;;1.23;;
70663;SDS011;58237;57.996;56.290;2022-11-15T15:49:40;3.03;;;1.33;;
70663;SDS011;58237;57.996;56.290;2022-11-15T15:52:05;3.58;;;1.00;;
70663;SDS011;58237;57.996;56.290;2022-11-15T15:54:30;2.05;;;0.98;;
70663;SDS011;58237;57.996;56.290;2022-11-15T15:56:56;5.38;;;1.42;;
70663;SDS011;58237;57.996;56.290;2022-11-15T15:59:21;4.70;;;1.10;;
70663;SDS011;58237;57.996;56.290;2022-11-15T16:01:46;3.03;;;1.10;;
70663;SDS011;58237;57.996;56.290;2022-11-15T16:04:12;4.70;;;1.58;;
70663;SDS011;58237;57.996;56.290;2022-11-15T16:06:40;3.30;;;1.40;;
70663;SDS011;58237;57.996;56.290;2022-11-15T16:09:06;3.40;;;1.35;;
70663;SDS011;58237;57.996;56.290;2022-11-15T16:11:31;4.90;;;1.35;;
70663;SDS011;58237;57.996;56.290;2022-11-15T16:13:57;2.15;;;1.00;;
70663;SDS011;58237;57.996;56.290;2022-11-15T16:16:22;4.47;;;1.20;;
70663;SDS011;58237;57.996;56.290;2022-11-15T16:18:47;5.18;;;1.95;;
70663;SDS011;58237;57.996;56.290;2022-11-15T16:21:13;3.25;;;1.10;;
70663;SDS011;58237;57.996;56.290;2022-11-15T16:23:38;1.50;;;0.80;;
70663;SDS011;58237;57.996;56.290;2022-11-15T16:26:06;2.85;;;0.90;;
70663;SDS011;58237;57.996;56.290;2022-11-15T16:28:36;3.03;;;1.23;;